Startpagina
METAR-TAF:

METAR-TAF

Vliegvelden :

Pago Pago, Kleine afgelegen eilanden van de Verenigde Staten

breedte: 14-20S, lengte: 170-43W, hoogte: 3 m

Actueel weer

Dit bericht is 1 uur en het 7 minuten geleden gemaakt, om 20:50 UTC
Wind 9 kt uit het oosten
Temperatuur 29°C
Vochtigheid 74%
Druk 1012 hPa
Zicht: 19.3 km
Weinig wolken op 1800 ft
Weinig wolken op 11000 ft

METAR: NSTU 162050Z 08009KT 12SM FEW018 FEW110 29/24 A2987 RMK SLP117 8/170 T02860240 51010

Tijdstip: 10:57 (21:57 UTC)

Verwachting

Dit bericht is 4 uur en het 35 minuten geleden gemaakt, om 17:22 UTC
Verwachting geldig van 16 om 18 UTC tot 17 om 18 UTC
Wind 8 kt uit het oosten
Zicht: 10 km
Verspreide wolken op 2000 ft
Gebroken wolken op 4000 ft
Gebroken wolken op 10000 ft
buien in de omgeving

TAF: NSTU 161722Z 1618/1718 08008KT P6SM VCSH SCT020 BKN040 BKN100

Waarnemingen en weersverwachtingen van meer dan 4000 vliegvelden (METAR en TAF).

De beschikbare stations zijn de gele en rode punten op de kaart.

Ga met uw muis naar het station om de naam te zien.

Klik dan om waarnemingen en weersverwachtingen te zien.

kaart wijzigen: klik op de groene knoppen met een zwart kruis om in te zoomen, op de groene knop met een streepje om uit te zoomen of op de groene pijlen voor aangrenzende kaarten.


METAR-TAF: